createdAt,value
2022-09-03T00:00:13.807Z,4.72
2022-09-03T00:02:42.983Z,3.83
2022-09-03T00:05:16.960Z,4.70
2022-09-03T00:07:49.539Z,3.67
2022-09-03T00:10:22.563Z,4.22
2022-09-03T00:12:54.285Z,4.30
2022-09-03T00:15:23.017Z,4.40
2022-09-03T00:17:54.253Z,4.20
2022-09-03T00:20:27.152Z,3.78
2022-09-03T00:22:56.928Z,4.28
2022-09-03T00:25:27.139Z,4.00
2022-09-03T00:27:58.616Z,4.88
2022-09-03T00:30:25.547Z,5.10
2022-09-03T00:32:56.816Z,4.30
2022-09-03T00:35:26.969Z,4.00
2022-09-03T00:37:54.804Z,4.82
2022-09-03T00:40:40.088Z,4.75
2022-09-03T00:43:22.631Z,4.72
2022-09-03T00:45:58.016Z,7.57
2022-09-03T00:48:30.177Z,4.97
2022-09-03T00:51:10.423Z,4.40
2022-09-03T00:53:43.356Z,4.23
2022-09-03T00:56:20.992Z,4.30
2022-09-03T00:59:03.007Z,4.82
2022-09-03T01:01:36.874Z,3.92
2022-09-03T01:04:14.117Z,3.55
2022-09-03T01:06:49.136Z,4.50
2022-09-03T01:09:29.275Z,4.63
2022-09-03T01:12:01.115Z,4.23
2022-09-03T01:14:49.064Z,5.23
2022-09-03T01:17:25.830Z,4.50
2022-09-03T01:20:03.411Z,4.97
2022-09-03T01:23:09.313Z,4.00
2022-09-03T01:25:49.888Z,3.70
2022-09-03T01:28:28.180Z,5.03
2022-09-03T01:31:02.993Z,3.63
2022-09-03T01:33:37.575Z,3.63
2022-09-03T01:36:12.258Z,4.73
2022-09-03T01:38:44.686Z,4.90
2022-09-03T01:41:18.651Z,4.20
2022-09-03T01:43:56.340Z,4.50
2022-09-03T01:46:26.604Z,4.88
2022-09-03T01:49:04.145Z,3.65
2022-09-03T01:51:32.227Z,4.32
2022-09-03T01:54:24.582Z,3.83
2022-09-03T01:57:35.807Z,4.00
2022-09-03T02:00:08.108Z,4.57
2022-09-03T02:02:34.808Z,4.25
2022-09-03T02:05:03.859Z,5.97
2022-09-03T02:07:34.065Z,4.80
2022-09-03T02:10:02.167Z,4.47
2022-09-03T02:12:31.314Z,3.90
2022-09-03T02:14:57.910Z,4.70
2022-09-03T02:17:26.210Z,5.13
2022-09-03T02:19:52.978Z,5.50
2022-09-03T02:22:19.573Z,4.53
2022-09-03T02:24:46.170Z,4.20
2022-09-03T02:27:13.403Z,5.88
2022-09-03T02:29:40.102Z,4.43
2022-09-03T02:32:06.715Z,4.90
2022-09-03T02:34:34.719Z,3.75
2022-09-03T02:37:12.407Z,4.60
2022-09-03T02:39:39.485Z,3.67
2022-09-03T02:42:06.840Z,5.25
2022-09-03T02:44:40.580Z,4.40
2022-09-03T02:47:08.736Z,4.75
2022-09-03T02:49:36.773Z,4.90
2022-09-03T02:52:06.530Z,4.50
2022-09-03T02:54:34.021Z,4.75
2022-09-03T02:57:00.591Z,5.07
2022-09-03T02:59:27.296Z,4.90
2022-09-03T03:01:54.055Z,4.28
2022-09-03T03:04:20.947Z,4.72
2022-09-03T03:06:49.054Z,5.00
2022-09-03T03:09:15.629Z,4.25
2022-09-03T03:11:42.245Z,4.73
2022-09-03T03:14:08.901Z,4.30
2022-09-03T03:16:35.771Z,4.10
2022-09-03T03:19:03.019Z,5.05
2022-09-03T03:21:29.663Z,4.60
2022-09-03T03:23:57.698Z,4.68
2022-09-03T03:26:24.519Z,4.50
2022-09-03T03:28:56.741Z,5.35
2022-09-03T03:31:23.985Z,5.63
2022-09-03T03:33:51.579Z,5.47
2022-09-03T03:36:18.174Z,4.70
2022-09-03T03:38:45.297Z,5.07
2022-09-03T03:41:14.828Z,4.22
2022-09-03T03:43:41.836Z,5.25
2022-09-03T03:46:08.698Z,6.35
2022-09-03T03:48:35.333Z,6.43
2022-09-03T03:51:03.191Z,4.80
2022-09-03T03:53:29.862Z,5.13
2022-09-03T03:55:57.373Z,4.67
2022-09-03T03:58:25.612Z,4.40
2022-09-03T04:00:52.855Z,4.75
2022-09-03T04:03:20.092Z,5.18
2022-09-03T04:05:55.366Z,4.80
2022-09-03T04:08:22.413Z,4.90
2022-09-03T04:10:49.184Z,4.90
2022-09-03T04:13:15.778Z,5.18
2022-09-03T04:15:44.179Z,4.90
2022-09-03T04:18:10.971Z,4.43
2022-09-03T04:20:37.863Z,4.22
2022-09-03T04:23:05.437Z,4.22
2022-09-03T04:25:32.205Z,4.90
2022-09-03T04:27:58.844Z,4.22
2022-09-03T04:30:25.700Z,4.95
2022-09-03T04:32:53.755Z,4.70
2022-09-03T04:35:20.684Z,5.03
2022-09-03T04:37:47.514Z,4.10
2022-09-03T04:40:14.451Z,4.80
2022-09-03T04:42:41.601Z,4.00
2022-09-03T04:45:09.704Z,4.13
2022-09-03T04:47:36.393Z,5.18
2022-09-03T04:50:04.616Z,4.68
2022-09-03T04:52:31.338Z,5.28
2022-09-03T04:54:57.935Z,3.93
2022-09-03T04:57:24.576Z,4.80
2022-09-03T04:59:51.160Z,4.60
2022-09-03T05:02:17.808Z,4.70
2022-09-03T05:04:44.415Z,5.28
2022-09-03T05:07:12.326Z,5.35
2022-09-03T05:09:39.031Z,5.10
2022-09-03T05:12:06.637Z,5.47
2022-09-03T05:14:33.202Z,4.35
2022-09-03T05:16:59.912Z,6.38
2022-09-03T05:19:26.518Z,5.40
2022-09-03T05:21:53.200Z,4.80
2022-09-03T05:24:21.230Z,4.90
2022-09-03T05:26:47.831Z,4.65
2022-09-03T05:29:14.542Z,4.80
2022-09-03T05:31:41.135Z,4.70
2022-09-03T05:34:08.485Z,4.60
2022-09-03T05:36:37.405Z,5.25
2022-09-03T05:39:04.478Z,4.78
2022-09-03T05:41:32.443Z,5.28
2022-09-03T05:43:59.338Z,5.03
2022-09-03T05:46:28.716Z,5.60
2022-09-03T05:48:55.314Z,5.00
2022-09-03T05:51:21.889Z,5.80
2022-09-03T05:53:49.335Z,8.52
2022-09-03T05:56:18.173Z,5.60
2022-09-03T05:58:47.586Z,5.03
2022-09-03T06:01:15.756Z,4.50
2022-09-03T06:03:43.679Z,5.53
2022-09-03T06:06:11.338Z,5.27
2022-09-03T06:08:38.295Z,5.47
2022-09-03T06:11:05.999Z,6.15
2022-09-03T06:13:33.602Z,4.30
2022-09-03T06:16:04.554Z,4.45
2022-09-03T06:18:32.119Z,4.63
2022-09-03T06:21:00.909Z,4.80
2022-09-03T06:23:28.634Z,4.30
2022-09-03T06:26:07.467Z,5.27
2022-09-03T06:28:36.420Z,4.75
2022-09-03T06:31:06.745Z,4.05
2022-09-03T06:33:35.905Z,8.10
2022-09-03T06:36:08.540Z,3.95
2022-09-03T06:38:37.127Z,4.50
2022-09-03T06:41:05.838Z,4.97
2022-09-03T06:43:34.506Z,5.23
2022-09-03T06:46:04.940Z,5.50
2022-09-03T06:48:33.403Z,5.95
2022-09-03T06:51:01.756Z,5.35
2022-09-03T06:53:32.143Z,4.13
2022-09-03T06:56:00.556Z,4.97
2022-09-03T06:58:29.969Z,3.83
2022-09-03T07:01:01.987Z,7.05
2022-09-03T07:03:30.085Z,5.20
2022-09-03T07:06:00.664Z,4.88
2022-09-03T07:08:27.275Z,5.18
2022-09-03T07:10:54.010Z,4.85
2022-09-03T07:13:20.566Z,4.43
2022-09-03T07:15:47.175Z,5.35
2022-09-03T07:18:13.868Z,5.00
2022-09-03T07:20:41.747Z,4.50
2022-09-03T07:23:08.448Z,5.38
2022-09-03T07:25:35.145Z,4.63
2022-09-03T07:28:02.144Z,4.45
2022-09-03T07:30:28.905Z,5.25
2022-09-03T07:32:55.479Z,4.13
2022-09-03T07:35:22.799Z,5.00
2022-09-03T07:37:51.254Z,5.57
2022-09-03T07:40:17.875Z,4.75
2022-09-03T07:42:44.445Z,4.55
2022-09-03T07:45:11.081Z,5.07
2022-09-03T07:47:37.647Z,5.45
2022-09-03T07:50:04.845Z,4.77
2022-09-03T07:52:31.461Z,4.90
2022-09-03T07:54:59.518Z,3.90
2022-09-03T07:57:26.216Z,4.50
2022-09-03T07:59:52.780Z,4.53
2022-09-03T08:02:19.372Z,5.35
2022-09-03T08:04:45.924Z,4.90
2022-09-03T08:07:12.624Z,4.25
2022-09-03T08:09:39.213Z,5.15
2022-09-03T08:12:07.922Z,4.43
2022-09-03T08:14:34.517Z,4.70
2022-09-03T08:17:01.099Z,4.22
2022-09-03T08:19:27.675Z,4.53
2022-09-03T08:21:54.253Z,5.75
2022-09-03T08:24:20.947Z,4.10
2022-09-03T08:26:51.695Z,5.68
2022-09-03T08:29:20.993Z,5.32
2022-09-03T08:31:47.713Z,5.70
2022-09-03T08:34:14.375Z,4.13
2022-09-03T08:36:41.054Z,4.90
2022-09-03T08:39:10.418Z,5.75
2022-09-03T08:42:07.426Z,4.40
2022-09-03T08:44:42.991Z,5.15
2022-09-03T08:47:14.348Z,3.70
2022-09-03T08:49:45.700Z,3.97
2022-09-03T08:52:23.701Z,5.30
2022-09-03T08:54:52.895Z,6.03
2022-09-03T08:57:20.703Z,5.32
2022-09-03T08:59:54.773Z,4.30
2022-09-03T09:02:33.510Z,3.90
2022-09-03T09:05:06.250Z,6.60
2022-09-03T09:07:43.737Z,5.05
2022-09-03T09:10:17.033Z,3.67
2022-09-03T09:12:52.766Z,5.10
2022-09-03T09:15:30.807Z,4.83
2022-09-03T09:18:05.718Z,4.77
2022-09-03T09:20:40.107Z,5.18
2022-09-03T09:23:08.578Z,5.53
2022-09-03T09:25:46.847Z,4.70
2022-09-03T09:28:17.908Z,4.30
2022-09-03T09:30:48.222Z,5.27
2022-09-03T09:33:15.178Z,5.73
2022-09-03T09:35:42.219Z,4.10
2022-09-03T09:38:09.675Z,4.82
2022-09-03T09:40:41.463Z,4.18
2022-09-03T09:43:13.936Z,4.03
2022-09-03T09:45:42.715Z,4.13
2022-09-03T09:48:18.569Z,5.35
2022-09-03T09:50:45.222Z,5.85
2022-09-03T09:53:12.924Z,4.00
2022-09-03T09:55:49.235Z,4.65
2022-09-03T09:58:18.665Z,4.70
2022-09-03T10:00:55.888Z,4.03
2022-09-03T10:03:23.987Z,5.05
2022-09-03T10:06:01.416Z,4.78
2022-09-03T10:08:28.007Z,5.43
2022-09-03T10:10:54.660Z,5.32
2022-09-03T10:13:24.507Z,4.20
2022-09-03T10:15:58.753Z,4.18
2022-09-03T10:18:36.992Z,5.07
2022-09-03T10:21:10.112Z,4.13
2022-09-03T10:23:49.247Z,5.90
2022-09-03T10:26:21.024Z,6.30
2022-09-03T10:28:56.055Z,5.47
2022-09-03T10:31:47.600Z,5.05
2022-09-03T10:34:25.147Z,5.70
2022-09-03T10:37:02.353Z,4.00
2022-09-03T10:39:48.876Z,4.40
2022-09-03T10:42:31.780Z,5.37
2022-09-03T10:45:07.496Z,5.70
2022-09-03T10:48:03.489Z,4.55
2022-09-03T10:50:47.976Z,5.47
2022-09-03T10:53:25.476Z,5.20
2022-09-03T10:56:01.736Z,5.80
2022-09-03T10:58:50.173Z,4.85
2022-09-03T11:01:27.836Z,5.47
2022-09-03T11:04:12.091Z,4.88
2022-09-03T11:06:47.152Z,4.85
2022-09-03T11:09:18.535Z,4.50
2022-09-03T11:11:49.462Z,5.57
2022-09-03T11:14:24.789Z,5.25
2022-09-03T11:16:55.041Z,5.30
2022-09-03T11:19:33.121Z,4.55
2022-09-03T11:22:02.822Z,5.40
2022-09-03T11:24:31.647Z,3.92
2022-09-03T11:27:07.518Z,5.18
2022-09-03T11:29:40.591Z,4.82
2022-09-03T11:32:15.873Z,5.03
2022-09-03T11:34:47.532Z,4.17
2022-09-03T11:37:22.081Z,5.03
2022-09-03T11:39:58.464Z,4.47
2022-09-03T11:42:31.802Z,4.00
2022-09-03T11:45:14.355Z,4.93
2022-09-03T11:47:42.710Z,4.70
2022-09-03T11:50:18.525Z,4.07
2022-09-03T11:52:47.391Z,4.97
2022-09-03T11:55:25.575Z,4.22
2022-09-03T11:57:52.162Z,4.68
2022-09-03T12:00:19.709Z,4.17
2022-09-03T12:02:49.453Z,5.88
2022-09-03T12:05:23.634Z,4.68
2022-09-03T12:08:08.908Z,4.15
2022-09-03T12:10:44.981Z,4.63
2022-09-03T12:13:26.388Z,4.77
2022-09-03T12:16:22.730Z,5.18
2022-09-03T12:18:49.748Z,4.18
2022-09-03T12:21:17.510Z,3.63
2022-09-03T12:23:49.062Z,4.65
2022-09-03T12:26:17.558Z,4.10
2022-09-03T12:28:46.345Z,4.23
2022-09-03T12:31:16.650Z,4.03
2022-09-03T12:33:43.321Z,4.97
2022-09-03T12:36:10.155Z,3.83
2022-09-03T12:38:54.708Z,6.90
2022-09-03T12:41:27.614Z,4.77
2022-09-03T12:43:56.761Z,4.70
2022-09-03T12:46:33.856Z,6.43
2022-09-03T12:51:54.506Z,4.72
2022-09-03T12:54:23.531Z,4.37
2022-09-03T12:56:56.527Z,4.63
2022-09-03T12:59:27.300Z,4.20
2022-09-03T13:02:02.828Z,3.92
2022-09-03T13:04:31.641Z,4.75
2022-09-03T13:07:02.858Z,6.17
2022-09-03T13:09:33.149Z,4.43
2022-09-03T13:12:01.172Z,6.40
2022-09-03T13:14:27.827Z,8.45
2022-09-03T13:17:17.362Z,9.52
2022-09-03T13:19:56.529Z,17.42
2022-09-03T13:22:32.425Z,14.83
2022-09-03T13:25:12.758Z,12.33
2022-09-03T13:27:51.441Z,10.43
2022-09-03T13:30:21.521Z,12.85
2022-09-03T13:32:56.191Z,14.90
2022-09-03T13:35:33.067Z,16.33
2022-09-03T13:38:08.898Z,11.13
2022-09-03T13:40:41.151Z,6.80
2022-09-03T13:43:27.555Z,5.75
2022-09-03T13:45:58.444Z,4.78
2022-09-03T13:48:34.158Z,4.82
2022-09-03T13:51:08.712Z,4.05
2022-09-03T13:53:47.231Z,7.47
2022-09-03T13:56:21.500Z,6.00
2022-09-03T13:58:56.559Z,5.95
2022-09-03T14:01:27.208Z,5.30
2022-09-03T14:03:57.500Z,5.00
2022-09-03T14:06:40.793Z,5.35
2022-09-03T14:09:16.291Z,4.17
2022-09-03T14:11:53.527Z,4.87
2022-09-03T14:14:34.717Z,4.85
2022-09-03T14:17:11.170Z,6.57
2022-09-03T14:19:45.449Z,6.97
2022-09-03T14:22:17.359Z,8.05
2022-09-03T14:24:48.984Z,4.40
2022-09-03T14:27:24.156Z,5.07
2022-09-03T14:29:55.306Z,4.32
2022-09-03T14:32:30.739Z,4.68
2022-09-03T14:35:17.282Z,5.22
2022-09-03T14:38:07.926Z,4.82
2022-09-03T14:40:42.203Z,4.23
2022-09-03T14:43:20.827Z,4.40
2022-09-03T14:46:06.212Z,4.43
2022-09-03T14:48:49.127Z,5.45
2022-09-03T14:51:27.232Z,6.80
2022-09-03T14:54:24.156Z,4.13
2022-09-03T14:57:02.780Z,5.10
2022-09-03T14:59:52.379Z,6.57
2022-09-03T15:02:57.384Z,6.00
2022-09-03T15:05:42.248Z,5.30
2022-09-03T15:08:18.743Z,5.30
2022-09-03T15:10:53.250Z,5.20
2022-09-03T15:13:26.247Z,4.55
2022-09-03T15:16:05.795Z,6.07
2022-09-03T15:18:59.343Z,5.57
2022-09-03T15:21:39.462Z,4.63
2022-09-03T15:24:13.961Z,4.50
2022-09-03T15:26:54.519Z,4.50
2022-09-03T15:29:52.320Z,5.22
2022-09-03T15:32:30.879Z,3.83
2022-09-03T15:35:05.937Z,5.60
2022-09-03T15:37:39.316Z,4.68
2022-09-03T15:40:10.209Z,4.53
2022-09-03T15:42:37.259Z,4.45
2022-09-03T15:45:13.817Z,5.70
2022-09-03T15:47:52.960Z,4.37
2022-09-03T15:50:32.414Z,6.20
2022-09-03T15:53:04.705Z,4.65
2022-09-03T15:55:34.689Z,5.85
2022-09-03T15:58:10.661Z,5.07
2022-09-03T16:00:53.265Z,5.18
2022-09-03T16:03:32.752Z,5.80
2022-09-03T16:06:05.669Z,4.93
2022-09-03T16:08:41.999Z,4.43
2022-09-03T16:11:13.541Z,5.53
2022-09-03T16:14:03.297Z,5.13
2022-09-03T16:16:42.037Z,4.05
2022-09-03T16:19:17.854Z,5.03
2022-09-03T16:21:50.932Z,4.40
2022-09-03T16:24:22.458Z,5.65
2022-09-03T16:26:54.575Z,4.57
2022-09-03T16:29:26.575Z,5.38
2022-09-03T16:32:12.252Z,4.50
2022-09-03T16:34:49.463Z,5.60
2022-09-03T16:37:25.733Z,5.80
2022-09-03T16:40:00.488Z,5.15
2022-09-03T16:42:34.776Z,5.65
2022-09-03T16:45:14.659Z,5.90
2022-09-03T16:47:55.022Z,4.85
2022-09-03T16:50:32.797Z,7.03
2022-09-03T16:53:12.212Z,4.80
2022-09-03T16:56:07.965Z,4.80
2022-09-03T16:58:45.088Z,5.60
2022-09-03T17:01:23.478Z,5.78
2022-09-03T17:04:05.544Z,5.00
2022-09-03T17:06:47.223Z,5.68
2022-09-03T17:09:29.468Z,5.60
2022-09-03T17:12:03.359Z,5.83
2022-09-03T17:14:50.193Z,5.50
2022-09-03T17:17:27.537Z,4.68
2022-09-03T17:20:01.217Z,5.07
2022-09-03T17:22:42.688Z,4.78
2022-09-03T17:25:21.969Z,4.45
2022-09-03T17:27:52.060Z,4.85
2022-09-03T17:30:28.079Z,5.00
2022-09-03T17:33:33.765Z,4.90
2022-09-03T17:36:10.245Z,5.00
2022-09-03T17:39:11.943Z,4.85
2022-09-03T17:41:46.221Z,4.60
2022-09-03T17:44:18.792Z,5.50
2022-09-03T17:46:54.432Z,5.63
2022-09-03T17:49:25.762Z,5.33
2022-09-03T17:52:02.044Z,7.13
2022-09-03T17:54:42.445Z,4.88
2022-09-03T17:57:18.783Z,5.28
2022-09-03T17:59:51.927Z,5.82
2022-09-03T18:02:29.858Z,4.97
2022-09-03T18:05:01.905Z,5.00
2022-09-03T18:07:32.809Z,4.47
2022-09-03T18:10:08.749Z,6.13
2022-09-03T18:12:50.263Z,5.75
2022-09-03T18:15:35.163Z,5.68
2022-09-03T18:18:08.126Z,4.72
2022-09-03T18:20:45.328Z,4.90
2022-09-03T18:23:18.502Z,4.90
2022-09-03T18:25:50.169Z,4.88
2022-09-03T18:28:26.359Z,4.50
2022-09-03T18:30:53.016Z,4.40
2022-09-03T18:33:23.532Z,4.30
2022-09-03T18:35:50.129Z,6.65
2022-09-03T18:38:23.104Z,4.60
2022-09-03T18:40:56.298Z,4.53
2022-09-03T18:43:34.001Z,5.00
2022-09-03T18:49:02.698Z,5.25
2022-09-03T18:51:38.993Z,5.55
2022-09-03T18:54:27.184Z,4.47
2022-09-03T18:56:54.221Z,5.67
2022-09-03T18:59:38.168Z,5.53
2022-09-03T19:02:17.263Z,5.03
2022-09-03T19:05:01.527Z,4.80
2022-09-03T19:07:39.317Z,4.75
2022-09-03T19:10:11.358Z,5.00
2022-09-03T19:12:59.458Z,5.77
2022-09-03T19:15:31.574Z,4.85
2022-09-03T19:18:09.654Z,5.22
2022-09-03T19:20:38.888Z,6.55
2022-09-03T19:23:05.440Z,5.82
2022-09-03T19:25:32.106Z,5.05
2022-09-03T19:28:12.880Z,5.53
2022-09-03T19:31:05.885Z,4.73
2022-09-03T19:33:40.652Z,4.88
2022-09-03T19:36:16.037Z,5.00
2022-09-03T19:38:55.316Z,7.18
2022-09-03T19:41:27.660Z,5.60
2022-09-03T19:44:07.863Z,4.57
2022-09-03T19:46:42.655Z,5.53
2022-09-03T19:49:17.152Z,5.00
2022-09-03T19:51:53.089Z,5.10
2022-09-03T19:54:24.612Z,6.07
2022-09-03T19:56:51.969Z,5.25
2022-09-03T19:59:21.186Z,6.75
2022-09-03T20:01:49.821Z,6.90
2022-09-03T20:04:16.488Z,6.60
2022-09-03T20:06:44.973Z,4.78
2022-09-03T20:09:17.340Z,4.68
2022-09-03T20:11:46.491Z,6.50
2022-09-03T20:14:15.796Z,4.88
2022-09-03T20:16:54.654Z,6.40
2022-09-03T20:19:31.386Z,5.53
2022-09-03T20:22:04.188Z,6.03
2022-09-03T20:24:43.369Z,6.03
2022-09-03T20:27:26.257Z,5.95
2022-09-03T20:29:59.756Z,4.70
2022-09-03T20:33:01.230Z,5.33
2022-09-03T20:35:47.073Z,4.97
2022-09-03T20:38:31.953Z,5.68
2022-09-03T20:41:10.429Z,4.65
2022-09-03T20:44:04.046Z,4.72
2022-09-03T20:46:45.668Z,5.82
2022-09-03T20:49:24.889Z,6.33
2022-09-03T20:51:57.333Z,5.53
2022-09-03T20:54:32.056Z,5.15
2022-09-03T20:57:16.801Z,4.90
2022-09-03T20:59:58.027Z,4.55
2022-09-03T21:02:37.918Z,4.57
2022-09-03T21:05:14.660Z,5.25
2022-09-03T21:07:53.677Z,5.70
2022-09-03T21:10:29.055Z,7.25
2022-09-03T21:13:07.780Z,6.47
2022-09-03T21:15:45.105Z,5.20
2022-09-03T21:18:20.554Z,4.70
2022-09-03T21:20:55.847Z,4.55
2022-09-03T21:23:27.137Z,4.63
2022-09-03T21:25:59.155Z,5.00
2022-09-03T21:28:33.141Z,5.75
2022-09-03T21:31:05.679Z,5.10
2022-09-03T21:33:36.905Z,4.65
2022-09-03T21:36:09.412Z,4.70
2022-09-03T21:38:37.353Z,5.70
2022-09-03T21:41:14.475Z,5.10
2022-09-03T21:43:47.712Z,5.28
2022-09-03T21:46:18.587Z,4.38
2022-09-03T21:48:52.278Z,4.60
2022-09-03T21:51:25.004Z,5.13
2022-09-03T21:53:58.037Z,4.73
2022-09-03T21:56:59.924Z,5.53
2022-09-03T21:59:47.327Z,5.22
2022-09-03T22:02:20.785Z,4.68
2022-09-03T22:04:47.831Z,4.80
2022-09-03T22:07:23.585Z,4.97
2022-09-03T22:09:58.196Z,5.20
2022-09-03T22:12:31.864Z,5.17
2022-09-03T22:15:00.003Z,4.90
2022-09-03T22:17:35.424Z,5.20
2022-09-03T22:20:04.916Z,4.82
2022-09-03T22:22:41.649Z,6.28
2022-09-03T22:25:12.677Z,6.70
2022-09-03T22:27:46.481Z,6.30
2022-09-03T22:30:19.871Z,6.15
2022-09-03T22:33:00.226Z,5.82
2022-09-03T22:35:41.669Z,5.13
2022-09-03T22:38:28.219Z,5.93
2022-09-03T22:41:04.519Z,5.88
2022-09-03T22:43:37.557Z,4.75
2022-09-03T22:46:08.839Z,6.37
2022-09-03T22:48:59.097Z,6.17
2022-09-03T22:51:28.936Z,5.50
2022-09-03T22:54:14.825Z,5.07
2022-09-03T22:56:42.111Z,6.43
2022-09-03T22:59:14.325Z,6.18
2022-09-03T23:01:45.023Z,5.18
2022-09-03T23:04:17.358Z,5.87
2022-09-03T23:06:48.944Z,5.47
2022-09-03T23:09:21.916Z,5.63
2022-09-03T23:11:52.904Z,6.00
2022-09-03T23:14:24.316Z,5.25
2022-09-03T23:16:54.629Z,5.63
2022-09-03T23:19:26.836Z,5.63
2022-09-03T23:21:56.788Z,6.13
2022-09-03T23:24:30.825Z,5.05
2022-09-03T23:27:00.319Z,5.43
2022-09-03T23:29:33.461Z,4.90
2022-09-03T23:32:00.868Z,5.18
2022-09-03T23:34:27.683Z,5.03
2022-09-03T23:37:33.167Z,5.63
2022-09-03T23:40:32.164Z,5.20
2022-09-03T23:43:24.142Z,5.40
2022-09-03T23:45:58.905Z,5.57
2022-09-03T23:48:38.073Z,5.93
2022-09-03T23:51:16.184Z,5.23
2022-09-03T23:53:59.776Z,5.95
2022-09-03T23:56:52.717Z,5.88
2022-09-03T23:59:29.472Z,6.13
